Time;durP1;ratioP1;P1;durP2;ratioP2;P2;SDS_P1;SDS_P2;PMS_P1;PMS_P2;Temp;Humidity;BMP_temperature;BMP_pressure;BME280_temperature;BME280_humidity;BME280_pressure;Samples;Min_cycle;Max_cycle;Signal;HPM_P1;HPM_P2
2021/12/30 00:00:48;;;;;;;58.13;11.57;;;;;;;10.55;98.61;101096.34;5022518;28;20057;-78
2021/12/30 00:03:13;;;;;;;55.20;12.18;;;;;;;10.54;98.46;101097.16;5023151;28;20029;-78
2021/12/30 00:05:40;;;;;;;55.50;11.80;;;;;;;10.53;98.45;101098.91;5023078;28;20068;-78
2021/12/30 00:08:07;;;;;;;45.78;10.25;;;;;;;10.53;98.56;101104.13;5022913;28;20284;-78
2021/12/30 00:10:33;;;;;;;53.60;11.05;;;;;;;10.54;98.63;101107.59;5022817;28;20048;-78
2021/12/30 00:12:58;;;;;;;51.40;11.70;;;;;;;10.53;98.88;101106.72;5021534;28;20018;-78
2021/12/30 00:15:24;;;;;;;57.40;12.15;;;;;;;10.54;98.78;101111.09;5022435;28;20184;-78
2021/12/30 00:17:50;;;;;;;51.78;11.80;;;;;;;10.54;98.76;101108.50;5022904;28;20033;-78
2021/12/30 00:20:16;;;;;;;55.33;11.98;;;;;;;10.55;98.80;101102.41;5022475;28;20073;-78
2021/12/30 00:22:42;;;;;;;57.47;12.63;;;;;;;10.56;99.13;101109.41;5054661;28;20017;-78
2021/12/30 00:25:09;;;;;;;50.50;12.02;;;;;;;10.56;98.85;101104.19;5054387;28;20072;-78
2021/12/30 00:27:34;;;;;;;54.35;12.32;;;;;;;10.61;99.23;101117.34;5048185;28;20030;-78
2021/12/30 00:30:03;;;;;;;48.50;11.65;;;;;;;10.61;99.24;101115.63;5022530;28;20025;-78
2021/12/30 00:32:28;;;;;;;51.97;12.30;;;;;;;10.63;99.17;101114.78;5022623;28;20048;-78
2021/12/30 00:34:54;;;;;;;59.28;13.60;;;;;;;10.63;99.08;101109.56;5054662;28;20166;-78
2021/12/30 00:37:19;;;;;;;52.10;12.50;;;;;;;10.65;99.05;101115.72;5022328;28;20100;-78
2021/12/30 00:39:45;;;;;;;53.38;12.63;;;;;;;10.64;99.02;101119.16;5022387;28;20030;-78
2021/12/30 00:42:10;;;;;;;48.53;12.25;;;;;;;10.66;99.03;101133.09;5021427;28;20018;-78
2021/12/30 00:44:35;;;;;;;56.60;12.48;;;;;;;10.67;99.15;101127.06;5021147;28;20113;-78
2021/12/30 00:47:02;;;;;;;50.95;12.13;;;;;;;10.68;99.16;101139.25;5022443;28;20162;-78
2021/12/30 00:49:29;;;;;;;51.08;11.45;;;;;;;10.68;99.44;101134.91;5022397;28;20075;-78
2021/12/30 00:51:55;;;;;;;55.30;12.57;;;;;;;10.70;99.42;101137.56;5023323;28;20034;-78
2021/12/30 00:54:21;;;;;;;56.08;11.52;;;;;;;10.71;99.43;101136.72;5024974;28;20207;-78
2021/12/30 00:56:46;;;;;;;63.55;11.85;;;;;;;10.71;99.05;101139.34;5026138;28;20030;-78
2021/12/30 00:59:11;;;;;;;57.90;12.10;;;;;;;10.71;99.08;101144.56;5026280;28;20025;-78
2021/12/30 01:01:37;;;;;;;43.28;10.00;;;;;;;10.71;99.21;101140.22;5026161;28;20046;-78
2021/12/30 01:04:03;;;;;;;54.50;12.13;;;;;;;10.71;99.34;101128.91;5025689;28;20114;-78
2021/12/30 01:06:29;;;;;;;51.58;10.85;;;;;;;10.72;99.17;101135.91;5024752;28;20018;-78
2021/12/30 01:08:55;;;;;;;49.58;10.05;;;;;;;10.72;99.21;101136.78;5026048;28;20029;-78
2021/12/30 01:11:23;;;;;;;46.38;10.45;;;;;;;10.73;99.52;101132.44;5024493;28;20042;-78
2021/12/30 01:13:57;;;;;;;46.33;9.65;;;;;;;10.75;99.99;101134.25;5026106;28;20064;-78
2021/12/30 01:16:24;;;;;;;48.30;9.20;;;;;;;10.76;99.68;101135.13;5025813;28;20025;-78
2021/12/30 01:19:04;;;;;;;44.53;9.98;;;;;;;10.76;99.76;101140.34;5025173;28;20061;-78
2021/12/30 01:21:32;;;;;;;46.95;8.30;;;;;;;10.78;99.70;101144.75;5024340;28;20053;-78
2021/12/30 01:23:58;;;;;;;41.75;9.32;;;;;;;10.78;99.93;101154.31;5025973;28;20276;-78
2021/12/30 01:26:25;;;;;;;43.53;8.80;;;;;;;10.79;99.94;101145.66;5024386;28;20215;-78
2021/12/30 01:28:50;;;;;;;48.25;9.63;;;;;;;10.81;99.96;101143.09;5024674;28;20021;-78
2021/12/30 01:31:17;;;;;;;45.25;8.80;;;;;;;10.82;100.00;101145.75;5025406;28;20029;-79
2021/12/30 01:33:44;;;;;;;42.38;8.63;;;;;;;10.83;100.00;101144.88;5024045;28;20042;-78
2021/12/30 01:36:10;;;;;;;41.88;8.73;;;;;;;10.87;100.00;101146.72;5024276;28;20168;-78
2021/12/30 01:38:36;;;;;;;51.60;10.43;;;;;;;10.89;100.00;101150.28;5024376;28;20041;-79
2021/12/30 01:41:02;;;;;;;48.88;10.20;;;;;;;10.90;100.00;101144.19;5024117;28;20093;-78
2021/12/30 01:43:28;;;;;;;46.95;10.27;;;;;;;10.93;100.00;101154.75;5024164;28;20042;-79
2021/12/30 01:45:54;;;;;;;48.80;10.35;;;;;;;10.95;100.00;101142.63;5024889;28;20036;-78
2021/12/30 01:48:21;;;;;;;53.08;10.75;;;;;;;10.99;100.00;101140.09;5025374;28;20183;-78
2021/12/30 01:50:48;;;;;;;51.63;11.50;;;;;;;11.01;100.00;101139.28;5023906;28;20029;-78
2021/12/30 01:53:13;;;;;;;50.50;10.98;;;;;;;11.05;100.00;101151.56;5025225;28;20041;-78
2021/12/30 01:55:40;;;;;;;54.83;11.85;;;;;;;11.09;100.00;101147.31;5025173;28;20121;-78
2021/12/30 01:58:06;;;;;;;55.40;11.27;;;;;;;11.10;100.00;101144.75;5024664;28;20044;-78
2021/12/30 02:00:33;;;;;;;51.90;11.75;;;;;;;11.12;100.00;101147.38;5025030;28;20177;-78
2021/12/30 02:03:00;;;;;;;47.13;12.25;;;;;;;11.12;100.00;101123.91;5023865;28;20332;-78
2021/12/30 02:05:26;;;;;;;53.80;11.80;;;;;;;11.15;100.00;101131.81;5056734;28;20204;-78
2021/12/30 02:07:52;;;;;;;47.65;11.32;;;;;;;11.16;100.00;101128.38;5024884;28;20057;-78
2021/12/30 02:10:18;;;;;;;51.22;11.30;;;;;;;11.18;100.00;101131.91;5024512;28;20287;-78
2021/12/30 02:12:46;;;;;;;46.72;12.00;;;;;;;11.20;100.00;101135.44;5023300;28;20172;-78
2021/12/30 02:15:14;;;;;;;49.65;11.32;;;;;;;11.22;100.00;101132.88;5024646;28;20082;-78
2021/12/30 02:17:39;;;;;;;50.85;11.18;;;;;;;11.23;100.00;101143.34;5024590;28;20030;-78
2021/12/30 02:20:33;;;;;;;46.58;11.38;;;;;;;11.27;100.00;101149.53;5024698;28;20034;-78
2021/12/30 02:22:58;;;;;;;43.45;11.57;;;;;;;11.28;100.00;101139.13;5023265;28;20076;-78
2021/12/30 02:25:24;;;;;;;46.53;11.73;;;;;;;11.29;100.00;101151.31;5024143;28;20227;-78
2021/12/30 02:27:49;;;;;;;44.63;12.15;;;;;;;11.30;100.00;101144.38;5023208;28;20018;-78
2021/12/30 02:30:14;;;;;;;46.95;11.60;;;;;;;11.29;100.00;101148.69;5024131;28;20045;-78
2021/12/30 02:32:40;;;;;;;41.05;11.65;;;;;;;11.30;100.00;101153.09;5024411;28;20036;-78
2021/12/30 02:35:06;;;;;;;45.08;11.20;;;;;;;11.31;100.00;101143.50;5024438;28;20036;-78
2021/12/30 02:37:31;;;;;;;43.33;11.05;;;;;;;11.33;100.00;101148.81;5024245;28;20052;-78
2021/12/30 02:39:56;;;;;;;49.17;11.10;;;;;;;11.34;100.00;101155.75;5024072;28;20117;-79
2021/12/30 02:42:24;;;;;;;36.50;10.40;;;;;;;11.35;100.00;101155.81;5055921;28;20073;-78
2021/12/30 02:44:50;;;;;;;45.55;10.35;;;;;;;11.37;100.00;101150.63;5024111;28;20021;-78
2021/12/30 02:47:16;;;;;;;43.63;10.85;;;;;;;11.35;100.00;101153.19;5023905;28;20288;-78
2021/12/30 02:49:42;;;;;;;41.42;10.48;;;;;;;11.37;100.00;101153.22;5024139;28;20056;-78
2021/12/30 02:52:08;;;;;;;35.90;9.52;;;;;;;11.38;100.00;101150.66;5023879;28;20026;-78
2021/12/30 02:54:33;;;;;;;38.15;9.73;;;;;;;11.38;100.00;101149.78;5024467;28;20045;-78
2021/12/30 02:56:59;;;;;;;43.53;10.50;;;;;;;11.37;100.00;101143.69;5022693;28;20252;-78
2021/12/30 02:59:24;;;;;;;41.53;10.40;;;;;;;11.37;100.00;101158.44;5023918;28;20029;-78
2021/12/30 03:01:49;;;;;;;35.67;10.30;;;;;;;11.38;100.00;101161.09;5023948;28;20022;-78
2021/12/30 03:04:15;;;;;;;38.63;9.52;;;;;;;11.38;100.00;101166.31;5023497;28;20057;-78
2021/12/30 03:06:41;;;;;;;35.08;9.38;;;;;;;11.39;100.00;101159.38;5023906;28;20084;-78
2021/12/30 03:09:06;;;;;;;40.10;9.57;;;;;;;11.40;100.00;101169.00;5022704;28;20113;-78
2021/12/30 03:11:32;;;;;;;40.75;10.43;;;;;;;11.40;100.00;101169.88;5023657;28;20030;-78
2021/12/30 03:14:00;;;;;;;29.35;9.32;;;;;;;11.40;100.00;101169.88;5023581;28;20022;-78
2021/12/30 03:16:29;;;;;;;29.63;9.75;;;;;;;11.40;100.00;101167.25;5023607;28;20037;-78
2021/12/30 03:18:57;;;;;;;31.33;9.90;;;;;;;11.42;100.00;101168.16;5023916;28;20022;-78
2021/12/30 03:21:23;;;;;;;29.48;8.82;;;;;;;11.43;100.00;101163.84;5023540;28;20034;-78
2021/12/30 03:23:49;;;;;;;28.33;9.32;;;;;;;11.44;100.00;101170.81;5055387;28;20018;-78
2021/12/30 03:26:15;;;;;;;27.60;8.13;;;;;;;11.43;100.00;101166.47;5021479;28;20033;-78
2021/12/30 03:28:43;;;;;;;24.42;8.32;;;;;;;11.42;100.00;101172.50;5023147;28;20034;-78
2021/12/30 03:31:09;;;;;;;28.73;8.02;;;;;;;11.46;100.00;101169.13;5023109;28;20021;-79
2021/12/30 03:33:35;;;;;;;22.52;7.70;;;;;;;11.47;100.00;101166.56;5022986;28;20219;-78
2021/12/30 03:36:03;;;;;;;24.70;8.20;;;;;;;11.46;100.00;101164.78;5023048;28;20049;-78
2021/12/30 03:38:30;;;;;;;21.80;7.75;;;;;;;11.47;100.00;101163.94;5022910;28;20022;-79
2021/12/30 03:40:56;;;;;;;19.02;7.28;;;;;;;11.48;100.00;101162.22;5023213;28;20046;-79
2021/12/30 03:43:21;;;;;;;18.70;6.97;;;;;;;11.50;100.00;101160.53;5053090;28;20056;-78
2021/12/30 03:45:47;;;;;;;20.95;7.18;;;;;;;11.52;100.00;101164.06;5021686;28;20036;-78
2021/12/30 03:48:12;;;;;;;22.75;7.53;;;;;;;11.54;100.00;101170.19;5022938;28;20208;-79
2021/12/30 03:50:44;;;;;;;24.88;7.05;;;;;;;11.57;100.00;101172.00;5023140;28;20037;-79
2021/12/30 03:53:13;;;;;;;24.45;6.65;;;;;;;11.58;100.00;101164.19;5022903;28;20025;-79
2021/12/30 03:55:40;;;;;;;20.27;6.72;;;;;;;11.61;100.00;101166.00;5023387;28;20096;-79
2021/12/30 03:58:05;;;;;;;18.10;6.75;;;;;;;11.62;100.00;101170.41;5022642;28;20037;-78
2021/12/30 04:00:32;;;;;;;19.17;6.45;;;;;;;11.64;100.00;101171.31;5022991;28;20026;-78
2021/12/30 04:02:57;;;;;;;20.23;6.50;;;;;;;11.67;100.00;101173.97;5023288;28;20304;-78
2021/12/30 04:05:24;;;;;;;20.58;7.40;;;;;;;11.70;100.00;101167.97;5022698;28;20038;-79
2021/12/30 04:07:49;;;;;;;19.40;6.65;;;;;;;11.73;100.00;101165.41;5023088;28;20033;-79
2021/12/30 04:10:16;;;;;;;26.52;8.68;;;;;;;11.75;100.00;101176.81;5022366;28;20333;-79
2021/12/30 04:12:43;;;;;;;29.52;8.52;;;;;;;11.78;100.00;101169.03;5022912;28;20085;-78
2021/12/30 04:15:09;;;;;;;32.83;9.45;;;;;;;11.86;100.00;101167.50;5022638;28;20030;-78
2021/12/30 04:17:34;;;;;;;27.17;9.30;;;;;;;11.86;100.00;101175.34;5020793;28;20293;-79
2021/12/30 04:20:00;;;;;;;35.53;10.93;;;;;;;11.88;100.00;101178.84;5018453;28;20017;-79
2021/12/30 04:22:25;;;;;;;37.15;11.45;;;;;;;11.88;100.00;101189.28;5022362;28;20057;-79
2021/12/30 04:24:51;;;;;;;37.50;11.63;;;;;;;11.92;100.00;101188.53;5052261;28;20017;-78
2021/12/30 04:27:16;;;;;;;36.97;11.98;;;;;;;11.95;100.00;101179.94;5025770;28;20026;-78
2021/12/30 04:29:41;;;;;;;34.08;12.20;;;;;;;11.97;100.00;101178.22;5031821;28;20200;-78
2021/12/30 04:32:07;;;;;;;40.55;13.38;;;;;;;11.98;100.00;101190.44;5022313;28;20029;-79
2021/12/30 04:34:33;;;;;;;42.17;14.30;;;;;;;11.98;100.00;101191.31;5022381;28;20030;-78
2021/12/30 04:36:58;;;;;;;42.60;14.80;;;;;;;12.00;100.00;101199.19;5022170;28;20207;-79
2021/12/30 04:39:29;;;;;;;44.45;14.90;;;;;;;12.02;100.00;101205.34;5022409;28;20085;-79
2021/12/30 04:41:55;;;;;;;43.72;16.35;;;;;;;12.03;100.00;101187.94;5022694;28;20089;-79
2021/12/30 04:44:21;;;;;;;48.65;17.00;;;;;;;12.07;100.00;101185.41;5022207;28;20097;-79
2021/12/30 04:46:46;;;;;;;51.63;18.17;;;;;;;12.12;100.00;101185.50;5054212;28;20018;-79
2021/12/30 04:49:12;;;;;;;49.65;18.27;;;;;;;12.14;100.00;101191.66;5022336;28;20180;-79
2021/12/30 04:51:38;;;;;;;50.72;18.02;;;;;;;12.16;100.00;101200.41;5022224;28;20030;-79
2021/12/30 04:54:03;;;;;;;47.83;18.20;;;;;;;12.19;100.00;101195.25;5022383;28;20060;-79
2021/12/30 04:56:28;;;;;;;52.13;19.73;;;;;;;12.18;100.00;101189.16;5022271;28;20085;-78
2021/12/30 04:58:54;;;;;;;54.13;20.17;;;;;;;12.22;100.00;101200.53;5022327;28;20014;-79
2021/12/30 05:01:20;;;;;;;54.75;21.25;;;;;;;12.24;100.00;101197.97;5020858;28;20042;-79
2021/12/30 05:03:45;;;;;;;56.92;22.02;;;;;;;12.27;100.00;101198.06;5022385;28;20285;-79
2021/12/30 05:06:10;;;;;;;49.97;20.25;;;;;;;12.28;100.00;101200.72;5020901;28;20046;-79
2021/12/30 05:08:35;;;;;;;54.20;19.65;;;;;;;12.27;100.00;101196.31;5022148;28;20021;-79
2021/12/30 05:11:01;;;;;;;51.72;19.92;;;;;;;12.29;100.00;101196.34;5021808;28;20045;-78
2021/12/30 05:13:26;;;;;;;56.75;20.35;;;;;;;12.29;100.00;101205.06;5022093;28;20089;-79
2021/12/30 05:15:52;;;;;;;57.92;22.52;;;;;;;12.30;100.00;101205.97;5021842;28;20057;-79
2021/12/30 05:18:19;;;;;;;56.88;21.80;;;;;;;12.29;100.00;101207.66;5022468;28;20026;-79
2021/12/30 05:20:44;;;;;;;53.63;20.30;;;;;;;12.29;100.00;101217.25;5022081;28;20054;-79
2021/12/30 05:23:11;;;;;;;48.83;19.75;;;;;;;12.30;100.00;101219.03;5053900;28;20029;-79
2021/12/30 05:25:36;;;;;;;49.25;19.83;;;;;;;12.30;100.00;101213.81;5021996;28;20113;-79
2021/12/30 05:28:02;;;;;;;46.03;19.33;;;;;;;12.30;100.00;101213.81;5021849;28;20117;-79
2021/12/30 05:30:27;;;;;;;41.75;18.15;;;;;;;12.32;100.00;101222.53;5021928;28;20328;-79
2021/12/30 05:32:55;;;;;;;43.00;17.55;;;;;;;12.33;100.00;101224.31;5020965;28;20257;-79
2021/12/30 05:35:21;;;;;;;38.92;16.60;;;;;;;12.35;100.00;101227.84;5021734;28;20097;-79
2021/12/30 05:37:47;;;;;;;34.67;15.30;;;;;;;12.38;100.00;101232.25;5022115;28;20029;-79
2021/12/30 05:40:16;;;;;;;32.95;15.10;;;;;;;12.40;100.00;101235.78;5024703;28;20032;-79
2021/12/30 05:42:42;;;;;;;35.22;15.90;;;;;;;12.43;100.00;101235.88;5025352;28;20276;-79
2021/12/30 05:45:08;;;;;;;37.17;16.73;;;;;;;12.44;100.00;101238.50;5025208;28;20044;-79
2021/12/30 05:47:34;;;;;;;34.70;17.00;;;;;;;12.51;100.00;101240.41;5025740;28;20021;-79
2021/12/30 05:50:01;;;;;;;36.58;18.13;;;;;;;12.53;100.00;101257.00;5023795;28;20295;-78
2021/12/30 05:52:27;;;;;;;30.67;16.38;;;;;;;12.57;100.00;101264.91;5057306;28;20025;-79
2021/12/30 05:54:52;;;;;;;30.55;16.25;;;;;;;12.60;100.00;101249.28;5025255;28;20105;-78
2021/12/30 05:57:17;;;;;;;28.17;15.30;;;;;;;12.62;100.00;101255.44;5024804;28;20224;-79
2021/12/30 05:59:43;;;;;;;29.10;15.25;;;;;;;12.65;100.00;101260.75;5057014;28;20101;-78
2021/12/30 06:02:08;;;;;;;26.77;14.18;;;;;;;12.67;100.00;101256.41;5024968;28;20018;-79
2021/12/30 06:04:33;;;;;;;29.92;14.65;;;;;;;12.67;100.00;101259.03;5056912;28;20050;-79
2021/12/30 06:06:59;;;;;;;29.77;14.90;;;;;;;12.68;100.00;101251.22;5024907;28;20292;-79
2021/12/30 06:09:25;;;;;;;30.05;14.65;;;;;;;12.70;100.00;101246.00;5024794;28;20076;-79
2021/12/30 06:11:52;;;;;;;29.75;14.85;;;;;;;12.72;99.89;101249.56;5056699;28;20149;-79
2021/12/30 06:14:17;;;;;;;30.63;15.05;;;;;;;12.72;99.97;101240.84;5024668;28;20219;-78
2021/12/30 06:16:42;;;;;;;32.40;15.52;;;;;;;12.69;100.00;101245.13;5024638;28;20021;-79
2021/12/30 06:19:08;;;;;;;33.92;15.73;;;;;;;12.72;99.76;101260.03;5024612;28;20334;-79
2021/12/30 06:21:33;;;;;;;35.08;16.42;;;;;;;12.72;100.00;101257.41;5024728;28;20181;-79
2021/12/30 06:23:58;;;;;;;35.40;17.30;;;;;;;12.73;99.56;101260.91;5024778;28;20053;-78
2021/12/30 06:26:24;;;;;;;35.75;17.90;;;;;;;12.72;99.69;101256.53;5024441;28;20026;-79
2021/12/30 06:28:49;;;;;;;37.92;18.40;;;;;;;12.72;99.58;101253.91;5025098;28;20184;-79
2021/12/30 06:31:15;;;;;;;37.58;18.98;;;;;;;12.74;99.58;101257.44;5023799;28;20292;-79
2021/12/30 06:33:41;;;;;;;39.63;19.27;;;;;;;12.72;99.47;101253.91;5024215;28;20033;-79
2021/12/30 06:36:08;;;;;;;34.67;16.67;;;;;;;12.74;99.30;101257.44;5024237;28;20172;-78
2021/12/30 06:38:34;;;;;;;34.85;17.25;;;;;;;12.76;99.19;101253.09;5024466;28;20022;-78
2021/12/30 06:40:59;;;;;;;33.55;16.55;;;;;;;12.75;99.22;101265.31;5024073;28;20100;-78
2021/12/30 06:43:25;;;;;;;33.92;17.05;;;;;;;12.75;99.13;101264.44;5024488;28;20030;-78
2021/12/30 06:45:50;;;;;;;32.83;16.08;;;;;;;12.74;99.00;101254.81;5023932;28;20273;-78
2021/12/30 06:48:15;;;;;;;33.47;15.88;;;;;;;12.74;99.02;101260.91;5024281;28;20029;-78
2021/12/30 06:50:51;;;;;;;30.92;15.15;;;;;;;12.73;99.14;101266.13;5023757;28;20022;-78
2021/12/30 06:53:16;;;;;;;28.83;13.82;;;;;;;12.74;98.90;101270.50;5024174;28;20049;-78
2021/12/30 06:55:44;;;;;;;26.23;13.48;;;;;;;12.75;98.86;101267.06;5024110;28;20065;-78
2021/12/30 06:58:09;;;;;;;29.27;14.45;;;;;;;12.75;98.77;101278.38;5023893;28;20025;-78
2021/12/30 07:00:35;;;;;;;32.22;14.85;;;;;;;12.78;98.59;101285.41;5023581;28;20057;-78
2021/12/30 07:03:00;;;;;;;29.42;13.98;;;;;;;12.78;98.97;101286.28;5023794;28;20026;-78
2021/12/30 07:05:25;;;;;;;28.00;13.55;;;;;;;12.78;98.58;101296.75;5023618;28;20188;-78
2021/12/30 07:07:51;;;;;;;27.05;13.35;;;;;;;12.78;98.58;101296.75;5023743;28;20049;-78
2021/12/30 07:10:16;;;;;;;26.10;12.30;;;;;;;12.78;98.53;101295.88;5023732;28;20088;-78
2021/12/30 07:12:41;;;;;;;26.98;12.50;;;;;;;12.81;98.34;101309.03;5022641;28;20095;-78
2021/12/30 07:15:07;;;;;;;24.38;11.57;;;;;;;12.79;98.47;101305.47;5023633;28;20136;-78
2021/12/30 07:17:33;;;;;;;24.38;11.20;;;;;;;12.83;98.35;101307.31;5023604;28;20080;-78
2021/12/30 07:19:58;;;;;;;23.77;11.18;;;;;;;12.82;98.36;101313.41;5023894;28;20021;-78
2021/12/30 07:22:24;;;;;;;27.75;12.07;;;;;;;12.81;98.34;101304.66;5023369;28;20033;-78
2021/12/30 07:24:49;;;;;;;31.27;13.50;;;;;;;12.83;98.25;101316.06;5023702;28;20060;-78
2021/12/30 07:27:14;;;;;;;29.42;13.65;;;;;;;12.82;98.34;101334.34;5023709;28;20196;-78
2021/12/30 07:29:40;;;;;;;32.42;14.80;;;;;;;12.83;98.62;101321.28;5023258;28;20022;-78
2021/12/30 07:32:05;;;;;;;32.45;14.27;;;;;;;12.84;98.41;101327.38;5023068;28;20030;-78
2021/12/30 07:34:31;;;;;;;35.25;15.00;;;;;;;12.83;98.45;101323.00;5012798;28;20150;-78
2021/12/30 07:36:56;;;;;;;36.92;15.82;;;;;;;12.85;98.23;101327.41;5023338;28;20203;-78
2021/12/30 07:39:21;;;;;;;34.67;15.73;;;;;;;12.86;98.38;101325.69;5021934;28;20168;-78
2021/12/30 07:41:47;;;;;;;37.28;16.90;;;;;;;12.86;98.31;101330.91;5023005;28;20025;-78
2021/12/30 07:44:12;;;;;;;40.55;17.98;;;;;;;12.85;98.21;101340.50;5022910;28;20042;-78
2021/12/30 07:46:37;;;;;;;38.53;16.48;;;;;;;12.86;98.34;101336.13;5021811;28;20037;-78
2021/12/30 07:49:03;;;;;;;36.38;16.00;;;;;;;12.88;98.20;101331.84;5023043;28;20044;-78
2021/12/30 07:51:29;;;;;;;33.25;14.82;;;;;;;12.87;98.23;101332.69;5021946;28;20200;-78
2021/12/30 07:53:54;;;;;;;31.90;12.95;;;;;;;12.86;98.34;101346.59;5023064;28;20310;-77
2021/12/30 07:56:19;;;;;;;27.58;12.32;;;;;;;12.88;98.26;101342.31;5022632;28;20030;-78
2021/12/30 07:58:45;;;;;;;31.45;13.02;;;;;;;12.87;98.08;101338.81;5018888;28;20284;-78
2021/12/30 08:01:10;;;;;;;29.20;13.15;;;;;;;12.90;98.00;101352.81;5024833;28;20058;-78
2021/12/30 08:03:35;;;;;;;29.90;13.10;;;;;;;12.88;98.12;101339.69;5012563;28;20058;-78
2021/12/30 08:06:01;;;;;;;27.25;11.98;;;;;;;12.88;97.75;101334.47;5011671;28;21463;-78
2021/12/30 08:08:26;;;;;;;27.40;11.65;;;;;;;12.87;97.68;101333.59;5013454;28;20045;-78
2021/12/30 08:10:51;;;;;;;23.58;10.75;;;;;;;12.85;97.60;101345.72;5012742;28;20038;-79
2021/12/30 08:13:17;;;;;;;22.90;10.13;;;;;;;12.86;97.64;101350.13;5011182;28;20052;-78
2021/12/30 08:15:44;;;;;;;21.40;9.75;;;;;;;12.86;97.64;101351.81;5015908;28;20018;-78
2021/12/30 08:18:09;;;;;;;22.52;9.10;;;;;;;12.87;97.30;101364.06;5015444;28;20073;-78
2021/12/30 08:20:35;;;;;;;21.80;9.77;;;;;;;12.87;97.35;101364.97;5018152;28;20289;-78
2021/12/30 08:23:00;;;;;;;19.35;8.35;;;;;;;12.88;97.33;101376.31;5014698;28;20037;-78
2021/12/30 08:25:26;;;;;;;19.35;8.43;;;;;;;12.86;97.18;101375.38;5015354;28;20324;-77
2021/12/30 08:27:51;;;;;;;18.50;7.57;;;;;;;12.87;97.48;101379.75;5020321;28;20033;-78
2021/12/30 08:30:19;;;;;;;15.10;6.78;;;;;;;12.87;97.34;101372.81;5040284;28;20172;-78
2021/12/30 08:32:45;;;;;;;16.17;6.72;;;;;;;12.90;97.32;101373.72;5018873;28;20059;-78
2021/12/30 08:35:13;;;;;;;14.10;6.13;;;;;;;12.92;97.12;101372.00;5018501;28;20018;-78
2021/12/30 08:37:39;;;;;;;13.32;5.70;;;;;;;12.93;97.24;101374.66;5011612;28;20053;-78
2021/12/30 08:40:07;;;;;;;12.48;6.00;;;;;;;12.94;96.98;101370.34;5016032;28;20041;-78
2021/12/30 08:42:33;;;;;;;13.43;5.50;;;;;;;12.98;96.84;101373.03;5022376;28;20034;-78
2021/12/30 08:45:00;;;;;;;13.40;4.95;;;;;;;12.99;96.76;101379.16;5010619;28;20216;-78
2021/12/30 08:47:27;;;;;;;11.05;5.32;;;;;;;12.99;96.68;101387.00;5011131;28;20030;-78
2021/12/30 08:49:54;;;;;;;13.48;5.13;;;;;;;12.97;96.86;101386.97;5016266;28;20030;-78
2021/12/30 08:52:22;;;;;;;15.63;5.40;;;;;;;12.97;96.92;101388.72;5010474;28;20030;-78
2021/12/30 08:54:49;;;;;;;14.07;5.75;;;;;;;12.97;96.98;101397.44;5020231;28;20068;-78
2021/12/30 08:57:16;;;;;;;13.55;5.90;;;;;;;12.99;97.07;101408.81;5013016;28;20026;-78
2021/12/30 08:59:42;;;;;;;11.10;5.32;;;;;;;12.99;97.09;101414.06;5021805;28;20034;-78
2021/12/30 09:02:08;;;;;;;16.33;5.95;;;;;;;13.00;96.97;101418.41;5016446;28;20036;-78
2021/12/30 09:04:33;;;;;;;17.73;7.15;;;;;;;13.02;96.88;101421.06;5015946;28;20042;-78
2021/12/30 09:06:59;;;;;;;17.02;6.88;;;;;;;13.04;96.51;101417.66;5022037;28;20056;-79
2021/12/30 09:09:25;;;;;;;18.60;7.13;;;;;;;13.08;96.59;101420.31;5019587;28;20049;-78
2021/12/30 09:11:51;;;;;;;15.95;6.13;;;;;;;13.07;96.43;101408.13;5020809;28;20239;-78
2021/12/30 09:14:16;;;;;;;17.40;6.45;;;;;;;13.11;96.35;101405.59;5014752;28;20050;-78
2021/12/30 09:16:42;;;;;;;17.00;6.82;;;;;;;13.13;96.16;101408.25;5025979;28;20022;-78
2021/12/30 09:19:08;;;;;;;18.23;7.65;;;;;;;13.15;96.45;101417.00;5016788;28;20026;-78
2021/12/30 09:21:38;;;;;;;19.30;6.80;;;;;;;13.17;96.40;101420.56;5025087;28;20215;-78
2021/12/30 09:24:04;;;;;;;22.73;7.20;;;;;;;13.23;95.54;101434.63;5023925;28;20077;-78
2021/12/30 09:26:30;;;;;;;17.85;6.95;;;;;;;13.25;95.52;101434.66;5024858;28;20113;-78
2021/12/30 09:28:55;;;;;;;17.33;7.10;;;;;;;13.26;95.35;101425.97;5024493;28;20021;-78
2021/12/30 09:31:21;;;;;;;19.63;6.70;;;;;;;13.27;94.98;101429.50;5025159;28;20101;-78
2021/12/30 09:33:46;;;;;;;16.23;6.80;;;;;;;13.29;95.27;101433.88;5024206;28;20080;-78
2021/12/30 09:36:11;;;;;;;20.20;7.10;;;;;;;13.32;94.76;101441.81;5013660;28;20072;-78
2021/12/30 09:38:37;;;;;;;17.52;6.82;;;;;;;13.32;94.52;101440.94;5021440;28;20061;-66
2021/12/30 09:41:03;;;;;;;16.50;6.10;;;;;;;13.32;94.72;101435.69;5023815;28;20026;-66
2021/12/30 09:43:28;;;;;;;18.85;6.18;;;;;;;13.34;94.02;101445.38;5022863;28;20050;-66
2021/12/30 09:45:54;;;;;;;14.50;6.15;;;;;;;13.37;93.58;101437.59;5023950;28;20281;-66
2021/12/30 09:48:19;;;;;;;21.17;6.35;;;;;;;13.39;93.62;101446.34;5023871;28;20080;-66
2021/12/30 09:50:50;;;;;;;14.43;6.40;;;;;;;13.41;93.86;101450.75;5024349;28;20036;-66
2021/12/30 09:53:20;;;;;;;15.98;6.43;;;;;;;13.42;93.38;101460.38;5024122;28;20199;-66
2021/12/30 09:55:45;;;;;;;16.85;5.75;;;;;;;13.47;92.68;101461.34;5023820;28;20036;-66
2021/12/30 09:58:11;;;;;;;15.88;6.18;;;;;;;13.45;92.81;101460.44;5024922;28;20041;-66
2021/12/30 10:00:37;;;;;;;14.63;6.10;;;;;;;13.45;92.62;101448.22;5024545;28;20033;-66
2021/12/30 10:03:03;;;;;;;18.60;6.20;;;;;;;13.47;92.41;101456.09;5025085;28;20042;-66
2021/12/30 10:05:33;;;;;;;24.45;6.80;;;;;;;13.50;92.04;101448.34;5024653;28;20037;-66
2021/12/30 10:08:19;;;;;;;21.13;6.50;;;;;;;13.50;92.44;101448.34;5025154;28;20025;-67
2021/12/30 10:10:51;;;;;;;23.27;6.63;;;;;;;13.51;92.06;101452.72;5024950;28;20021;-66
2021/12/30 10:13:21;;;;;;;18.48;6.72;;;;;;;13.50;91.77;101450.97;5024798;28;20235;-67
2021/12/30 10:15:50;;;;;;;19.80;6.47;;;;;;;13.51;91.52;101453.63;5023601;28;20173;-66
2021/12/30 10:18:18;;;;;;;20.13;6.25;;;;;;;13.53;91.19;101451.03;5025107;28;20018;-66
2021/12/30 10:20:43;;;;;;;20.40;6.28;;;;;;;13.55;91.62;101465.03;5024699;28;20034;-66
2021/12/30 10:23:16;;;;;;;17.27;6.03;;;;;;;13.57;91.55;101464.22;5024936;28;20211;-66
2021/12/30 10:25:44;;;;;;;19.02;6.13;;;;;;;13.58;91.73;101472.94;5023956;28;20026;-66
2021/12/30 10:28:36;;;;;;;16.83;5.82;;;;;;;13.59;92.21;101456.38;5024370;28;20028;-66
2021/12/30 10:31:10;;;;;;;16.13;5.50;;;;;;;13.59;91.83;101461.63;5024454;28;20289;-66
2021/12/30 10:33:36;;;;;;;20.05;6.03;;;;;;;13.60;91.37;101457.25;5024626;28;20137;-66
2021/12/30 10:36:13;;;;;;;15.73;5.82;;;;;;;13.59;91.77;101460.75;5024147;28;20749;-66
2021/12/30 10:38:39;;;;;;;19.13;6.22;;;;;;;13.60;90.45;101465.13;5024386;28;20034;-66
2021/12/30 10:41:04;;;;;;;23.25;6.40;;;;;;;13.60;91.26;101462.50;5024244;28;20099;-66
2021/12/30 10:43:45;;;;;;;21.92;6.57;;;;;;;13.62;91.29;101466.91;5024424;28;20032;-66
2021/12/30 10:46:10;;;;;;;17.63;6.13;;;;;;;13.63;90.92;101465.19;5024342;28;20077;-66
2021/12/30 10:49:09;;;;;;;21.40;6.07;;;;;;;13.64;90.89;101459.97;5024022;28;20037;-66
2021/12/30 10:51:43;;;;;;;19.38;6.22;;;;;;;13.64;90.43;101467.81;5022917;28;20299;-66
2021/12/30 10:54:19;;;;;;;20.67;6.53;;;;;;;13.64;90.69;101457.34;5024153;28;20026;-66
2021/12/30 10:56:55;;;;;;;19.75;6.20;;;;;;;13.70;90.17;101453.97;5015734;28;20285;-78
2021/12/30 10:59:30;;;;;;;20.20;6.65;;;;;;;13.69;90.20;101471.44;5016076;28;20050;-77
2021/12/30 11:02:17;;;;;;;21.77;6.28;;;;;;;13.70;89.98;101465.34;5016226;28;20039;-78
2021/12/30 11:04:43;;;;;;;117.55;29.65;;;;;;;13.72;89.21;101454.91;5010134;28;20026;-78
2021/12/30 11:07:12;;;;;;;88.32;26.35;;;;;;;13.72;89.46;101463.63;5019186;28;20097;-77